createdAt,value
2017-11-29T00:01:53.773Z,14.20
2017-11-29T00:04:21.662Z,11.10
2017-11-29T00:06:49.593Z,9.23
2017-11-29T00:09:17.476Z,12.73
2017-11-29T00:11:45.370Z,12.70
2017-11-29T00:14:13.268Z,11.00
2017-11-29T00:16:41.151Z,17.20
2017-11-29T00:19:09.040Z,12.03
2017-11-29T00:21:36.934Z,14.10
2017-11-29T00:24:04.782Z,16.30
2017-11-29T00:26:32.669Z,10.93
2017-11-29T00:29:00.530Z,11.07
2017-11-29T00:31:28.366Z,12.17
2017-11-29T00:33:56.241Z,11.93
2017-11-29T00:36:24.089Z,11.40
2017-11-29T00:38:51.976Z,17.23
2017-11-29T00:41:19.861Z,14.67
2017-11-29T00:43:47.713Z,15.57
2017-11-29T00:46:15.564Z,15.67
2017-11-29T00:48:43.478Z,14.00
2017-11-29T00:51:11.365Z,10.13
2017-11-29T00:53:39.245Z,13.90
2017-11-29T00:56:07.129Z,12.70
2017-11-29T00:58:35.003Z,13.10
2017-11-29T01:01:02.884Z,13.80
2017-11-29T01:03:30.764Z,13.93
2017-11-29T01:05:58.645Z,15.50
2017-11-29T01:08:26.485Z,16.23
2017-11-29T01:10:54.386Z,12.00
2017-11-29T01:13:22.243Z,15.27
2017-11-29T01:15:50.101Z,20.23
2017-11-29T01:18:18.021Z,13.00
2017-11-29T01:20:45.934Z,17.10
2017-11-29T01:23:13.822Z,13.40
2017-11-29T01:25:41.700Z,12.87
2017-11-29T01:28:09.557Z,13.70
2017-11-29T01:30:37.429Z,14.30
2017-11-29T01:33:05.304Z,19.30
2017-11-29T01:35:33.145Z,13.57
2017-11-29T01:38:01.001Z,20.33
2017-11-29T01:40:28.879Z,14.70
2017-11-29T01:42:56.707Z,13.27
2017-11-29T01:45:24.553Z,14.83
2017-11-29T01:47:52.420Z,18.13
2017-11-29T01:50:20.268Z,17.53
2017-11-29T01:52:48.120Z,13.23
2017-11-29T01:55:17.180Z,16.03
2017-11-29T01:57:45.069Z,15.00
2017-11-29T02:00:12.929Z,15.60
2017-11-29T02:02:41.321Z,14.47
2017-11-29T02:05:09.650Z,16.20
2017-11-29T02:07:37.897Z,11.97
2017-11-29T02:10:05.819Z,13.03
2017-11-29T02:12:33.669Z,11.60
2017-11-29T02:15:01.542Z,23.47
2017-11-29T02:17:29.424Z,13.60
2017-11-29T02:19:57.337Z,12.83
2017-11-29T02:22:25.193Z,11.50
2017-11-29T02:24:53.093Z,13.60
2017-11-29T02:27:21.084Z,9.70
2017-11-29T02:29:49.030Z,9.20
2017-11-29T02:32:16.918Z,15.80
2017-11-29T02:34:44.798Z,14.87
2017-11-29T02:37:12.748Z,14.10
2017-11-29T02:39:59.725Z,12.03
2017-11-29T02:42:33.709Z,11.80
2017-11-29T02:45:01.607Z,11.80
2017-11-29T02:47:29.497Z,12.20
2017-11-29T02:49:57.479Z,13.77
2017-11-29T02:52:25.472Z,15.50
2017-11-29T02:54:53.406Z,11.87
2017-11-29T02:57:22.245Z,18.47
2017-11-29T02:59:50.616Z,14.80
2017-11-29T03:02:18.477Z,15.13
2017-11-29T03:04:46.368Z,10.47
2017-11-29T03:07:14.259Z,10.93
2017-11-29T03:09:42.125Z,15.67
2017-11-29T03:12:10.004Z,14.37
2017-11-29T03:14:52.848Z,14.00
2017-11-29T03:17:20.709Z,16.63
2017-11-29T03:19:48.565Z,13.93
2017-11-29T03:22:16.514Z,18.93
2017-11-29T03:24:44.507Z,10.47
2017-11-29T03:27:12.446Z,17.20
2017-11-29T03:29:40.316Z,14.20
2017-11-29T03:32:08.153Z,13.07
2017-11-29T03:34:36.057Z,13.77
2017-11-29T03:37:03.952Z,14.40
2017-11-29T03:39:31.835Z,15.23
2017-11-29T03:42:00.517Z,17.80
2017-11-29T03:44:28.369Z,15.80
2017-11-29T03:46:56.307Z,16.20
2017-11-29T03:49:24.257Z,17.00
2017-11-29T03:51:52.146Z,16.13
2017-11-29T03:54:20.028Z,15.87
2017-11-29T03:56:47.879Z,15.07
2017-11-29T03:59:15.807Z,18.53
2017-11-29T04:01:43.639Z,20.60
2017-11-29T04:04:11.540Z,16.77
2017-11-29T04:06:39.440Z,18.77
2017-11-29T04:09:07.432Z,14.00
2017-11-29T04:11:35.403Z,19.37
2017-11-29T04:14:03.411Z,18.50
2017-11-29T04:16:31.349Z,13.20
2017-11-29T04:18:59.256Z,15.93
2017-11-29T04:21:27.276Z,16.83
2017-11-29T04:23:55.136Z,16.30
2017-11-29T04:26:23.025Z,17.57
2017-11-29T04:28:50.980Z,15.53
2017-11-29T04:31:18.926Z,14.00
2017-11-29T04:33:46.799Z,15.47
2017-11-29T04:36:14.705Z,17.63
2017-11-29T04:38:42.566Z,14.40
2017-11-29T04:41:10.441Z,14.00
2017-11-29T04:43:38.339Z,16.37
2017-11-29T04:46:06.181Z,14.60
2017-11-29T04:48:34.085Z,17.30
2017-11-29T04:51:01.961Z,14.90
2017-11-29T04:53:29.831Z,16.43
2017-11-29T04:55:57.715Z,17.20
2017-11-29T04:58:25.619Z,17.57
2017-11-29T05:00:53.500Z,17.87
2017-11-29T05:03:21.382Z,14.67
2017-11-29T05:05:49.281Z,13.80
2017-11-29T05:08:17.129Z,18.27
2017-11-29T05:10:44.996Z,16.00
2017-11-29T05:13:12.902Z,16.10
2017-11-29T05:15:40.963Z,17.30
2017-11-29T05:18:08.839Z,21.97
2017-11-29T05:20:36.789Z,17.70
2017-11-29T05:23:04.633Z,22.17
2017-11-29T05:25:32.530Z,18.13
2017-11-29T05:28:00.429Z,15.67
2017-11-29T05:30:28.295Z,18.60
2017-11-29T05:32:56.185Z,20.57
2017-11-29T05:35:24.162Z,19.77
2017-11-29T05:37:52.037Z,20.47
2017-11-29T05:40:19.901Z,17.93
2017-11-29T05:42:47.859Z,17.27
2017-11-29T05:45:15.700Z,20.07
2017-11-29T05:47:43.553Z,19.83
2017-11-29T05:50:11.435Z,16.87
2017-11-29T05:52:39.281Z,24.60
2017-11-29T05:55:09.008Z,19.23
2017-11-29T05:57:36.995Z,20.40
2017-11-29T06:00:04.849Z,21.97
2017-11-29T06:02:32.793Z,19.80
2017-11-29T06:05:00.700Z,20.37
2017-11-29T06:07:28.558Z,19.60
2017-11-29T06:09:56.437Z,21.13
2017-11-29T06:12:24.305Z,24.23
2017-11-29T06:14:52.206Z,21.40
2017-11-29T06:17:20.088Z,19.70
2017-11-29T06:19:47.965Z,18.23
2017-11-29T06:22:15.813Z,18.87
2017-11-29T06:24:43.644Z,20.30
2017-11-29T06:27:11.520Z,22.30
2017-11-29T06:29:39.402Z,18.50
2017-11-29T06:32:07.268Z,17.00
2017-11-29T06:34:35.157Z,22.57
2017-11-29T06:37:03.005Z,18.97
2017-11-29T06:39:30.846Z,19.67
2017-11-29T06:41:58.716Z,19.50
2017-11-29T06:44:26.651Z,19.00
2017-11-29T06:46:54.501Z,24.07
2017-11-29T06:49:22.370Z,23.33
2017-11-29T06:51:50.213Z,25.57
2017-11-29T06:54:18.050Z,20.70
2017-11-29T06:56:45.945Z,20.97
2017-11-29T06:59:13.808Z,22.60
2017-11-29T07:01:41.865Z,22.27
2017-11-29T07:04:09.815Z,19.83
2017-11-29T07:06:37.727Z,24.87
2017-11-29T07:09:05.590Z,23.47
2017-11-29T07:11:33.458Z,21.00
2017-11-29T07:14:01.387Z,21.53
2017-11-29T07:16:29.213Z,22.40
2017-11-29T07:18:57.090Z,18.03
2017-11-29T07:21:24.992Z,18.30
2017-11-29T07:23:52.938Z,28.40
2017-11-29T07:26:20.820Z,19.23
2017-11-29T07:28:48.674Z,23.00
2017-11-29T07:31:16.513Z,23.03
2017-11-29T07:33:44.474Z,21.10
2017-11-29T07:36:12.367Z,21.53
2017-11-29T07:38:40.329Z,17.80
2017-11-29T07:41:08.200Z,21.73
2017-11-29T07:43:36.085Z,19.60
2017-11-29T07:46:04.915Z,23.73
2017-11-29T07:48:32.786Z,22.13
2017-11-29T07:51:00.768Z,19.03
2017-11-29T07:53:28.727Z,21.33
2017-11-29T07:55:56.625Z,19.30
2017-11-29T07:58:24.465Z,20.00
2017-11-29T08:00:52.355Z,19.77
2017-11-29T08:03:20.301Z,20.53
2017-11-29T08:05:48.201Z,25.50
2017-11-29T08:08:16.066Z,21.20
2017-11-29T08:10:43.929Z,26.97
2017-11-29T08:13:11.796Z,20.73
2017-11-29T08:15:39.729Z,18.97
2017-11-29T08:18:07.621Z,22.83
2017-11-29T08:20:35.530Z,22.33
2017-11-29T08:23:03.387Z,18.43
2017-11-29T08:25:31.265Z,28.87
2017-11-29T08:27:59.147Z,23.93
2017-11-29T08:30:27.095Z,22.30
2017-11-29T08:32:55.800Z,21.37
2017-11-29T08:35:23.685Z,26.97
2017-11-29T08:37:51.525Z,23.33
2017-11-29T08:40:19.437Z,26.37
2017-11-29T08:42:47.322Z,25.20
2017-11-29T08:45:15.214Z,21.47
2017-11-29T08:47:43.101Z,22.73
2017-11-29T08:50:11.004Z,25.60
2017-11-29T08:52:38.982Z,21.60
2017-11-29T08:55:06.958Z,20.80
2017-11-29T08:57:34.810Z,20.67
2017-11-29T09:00:02.675Z,27.47
2017-11-29T09:02:30.682Z,27.67
2017-11-29T09:04:58.536Z,23.37
2017-11-29T09:07:26.543Z,24.03
2017-11-29T09:09:54.440Z,25.83
2017-11-29T09:12:22.283Z,30.97
2017-11-29T09:14:50.120Z,30.67
2017-11-29T09:17:18.010Z,25.23
2017-11-29T09:19:45.917Z,24.37
2017-11-29T09:22:13.758Z,24.90
2017-11-29T09:24:41.649Z,28.37
2017-11-29T09:27:09.479Z,19.87
2017-11-29T09:29:37.346Z,25.50
2017-11-29T09:32:05.213Z,20.70
2017-11-29T09:34:33.286Z,25.73
2017-11-29T09:37:01.131Z,28.90
2017-11-29T09:39:29.015Z,23.10
2017-11-29T09:41:56.900Z,31.33
2017-11-29T09:44:24.745Z,25.00
2017-11-29T09:46:52.623Z,19.83
2017-11-29T09:49:20.471Z,20.33
2017-11-29T09:51:48.325Z,21.70
2017-11-29T09:54:16.193Z,18.97
2017-11-29T09:56:44.054Z,18.03
2017-11-29T09:59:11.911Z,20.57
2017-11-29T10:01:39.800Z,20.17
2017-11-29T10:04:07.657Z,21.77
2017-11-29T10:06:36.350Z,22.90
2017-11-29T10:09:04.385Z,21.73
2017-11-29T10:11:32.236Z,22.30
2017-11-29T10:14:00.086Z,28.33
2017-11-29T10:16:27.959Z,26.80
2017-11-29T10:18:55.825Z,33.33
2017-11-29T10:21:23.685Z,24.83
2017-11-29T10:23:51.627Z,31.20
2017-11-29T10:26:19.513Z,22.30
2017-11-29T10:28:47.350Z,24.97
2017-11-29T10:31:15.230Z,22.93
2017-11-29T10:33:43.076Z,26.23
2017-11-29T10:36:10.955Z,36.37
2017-11-29T10:38:38.837Z,24.83
2017-11-29T10:41:06.738Z,23.83
2017-11-29T10:43:34.589Z,27.37
2017-11-29T10:46:02.474Z,21.63
2017-11-29T10:48:30.335Z,22.50
2017-11-29T10:50:58.767Z,40.70
2017-11-29T10:53:26.668Z,22.40
2017-11-29T10:55:55.559Z,23.80
2017-11-29T10:58:23.470Z,34.63
2017-11-29T11:00:51.356Z,20.83
2017-11-29T11:03:19.275Z,28.40
2017-11-29T11:05:47.267Z,29.03
2017-11-29T11:08:15.137Z,31.90
2017-11-29T11:10:43.166Z,21.10
2017-11-29T11:13:11.073Z,24.67
2017-11-29T11:15:39.031Z,23.63
2017-11-29T11:18:06.935Z,25.00
2017-11-29T11:20:34.954Z,21.40
2017-11-29T11:23:03.061Z,25.33
2017-11-29T11:25:31.043Z,25.63
2017-11-29T11:27:59.034Z,18.20
2017-11-29T11:30:26.937Z,28.53
2017-11-29T11:32:54.805Z,28.77
2017-11-29T11:35:22.881Z,21.50
2017-11-29T11:37:50.778Z,26.70
2017-11-29T11:40:18.706Z,23.70
2017-11-29T11:42:46.667Z,23.67
2017-11-29T11:45:14.688Z,32.83
2017-11-29T11:47:42.581Z,19.37
2017-11-29T11:50:15.768Z,30.27
2017-11-29T11:52:43.683Z,32.63
2017-11-29T11:55:11.639Z,25.10
2017-11-29T11:57:39.553Z,24.10
2017-11-29T12:00:07.549Z,27.00
2017-11-29T12:02:35.420Z,22.63
2017-11-29T12:05:03.312Z,26.10
2017-11-29T12:07:31.176Z,29.20
2017-11-29T12:09:59.014Z,24.77
2017-11-29T12:12:26.886Z,21.90
2017-11-29T12:14:54.746Z,25.37
2017-11-29T12:17:22.610Z,26.73
2017-11-29T12:19:50.463Z,23.13
2017-11-29T12:22:18.348Z,24.47
2017-11-29T12:24:46.196Z,24.10
2017-11-29T12:27:14.060Z,24.27
2017-11-29T12:29:41.918Z,23.97
2017-11-29T12:32:09.786Z,27.63
2017-11-29T12:34:37.655Z,19.97
2017-11-29T12:37:05.522Z,29.43
2017-11-29T12:39:33.390Z,20.70
2017-11-29T12:42:01.251Z,25.27
2017-11-29T12:44:29.148Z,21.93
2017-11-29T12:46:56.995Z,28.60
2017-11-29T12:49:31.033Z,26.00
2017-11-29T12:51:58.880Z,20.33
2017-11-29T12:54:26.731Z,26.10
2017-11-29T12:56:54.634Z,23.03
2017-11-29T12:59:22.531Z,25.40
2017-11-29T13:01:50.449Z,27.23
2017-11-29T13:04:18.339Z,22.10
2017-11-29T13:06:46.174Z,23.77
2017-11-29T13:09:14.073Z,26.87
2017-11-29T13:11:42.009Z,26.83
2017-11-29T13:14:09.873Z,27.83
2017-11-29T13:16:37.758Z,23.03
2017-11-29T13:19:05.653Z,26.33
2017-11-29T13:21:33.524Z,20.53
2017-11-29T13:24:01.358Z,27.93
2017-11-29T13:26:29.237Z,25.33
2017-11-29T13:28:57.091Z,24.23
2017-11-29T13:31:24.955Z,23.47
2017-11-29T13:33:52.882Z,26.17
2017-11-29T13:36:20.757Z,31.20
2017-11-29T13:38:48.602Z,26.97
2017-11-29T13:41:16.497Z,22.93
2017-11-29T13:43:44.347Z,26.70
2017-11-29T13:46:12.255Z,26.67
2017-11-29T13:48:40.168Z,31.03
2017-11-29T13:51:08.063Z,20.83
2017-11-29T13:53:35.932Z,26.23
2017-11-29T13:56:03.808Z,34.10
2017-11-29T13:58:31.696Z,32.10
2017-11-29T14:00:59.594Z,21.63
2017-11-29T14:03:27.530Z,28.57
2017-11-29T14:05:55.371Z,24.17
2017-11-29T14:08:23.238Z,23.80
2017-11-29T14:10:51.162Z,24.30
2017-11-29T14:13:19.039Z,25.10
2017-11-29T14:15:46.909Z,28.00
2017-11-29T14:18:14.786Z,25.10
2017-11-29T14:20:42.633Z,28.13
2017-11-29T14:23:10.543Z,26.40
2017-11-29T14:25:38.433Z,25.17
2017-11-29T14:28:06.313Z,28.67
2017-11-29T14:30:34.162Z,22.77
2017-11-29T14:33:02.063Z,27.33
2017-11-29T14:35:29.933Z,31.80
2017-11-29T14:37:57.831Z,25.80
2017-11-29T14:40:25.768Z,30.93
2017-11-29T14:42:53.643Z,45.60
2017-11-29T14:45:21.497Z,27.10
2017-11-29T14:47:49.443Z,33.17
2017-11-29T14:50:17.377Z,25.70
2017-11-29T14:52:45.249Z,29.70
2017-11-29T14:55:13.198Z,29.77
2017-11-29T14:57:41.094Z,28.10
2017-11-29T15:00:08.975Z,26.90
2017-11-29T15:02:36.973Z,29.67
2017-11-29T15:05:04.850Z,31.37
2017-11-29T15:07:32.693Z,22.83
2017-11-29T15:10:00.791Z,27.77
2017-11-29T15:12:28.671Z,29.70
2017-11-29T15:14:56.526Z,30.57
2017-11-29T15:17:24.819Z,28.30
2017-11-29T15:19:52.666Z,33.40
2017-11-29T15:22:20.543Z,30.33
2017-11-29T15:24:48.421Z,30.60
2017-11-29T15:27:16.287Z,27.60
2017-11-29T15:29:44.153Z,29.53
2017-11-29T15:32:12.255Z,32.30
2017-11-29T15:34:40.117Z,25.60
2017-11-29T15:37:08.383Z,33.23
2017-11-29T15:39:36.722Z,31.20
2017-11-29T15:42:05.052Z,32.30
2017-11-29T15:44:33.488Z,29.37
2017-11-29T15:47:01.827Z,26.03
2017-11-29T15:49:30.230Z,32.90
2017-11-29T15:51:58.522Z,30.93
2017-11-29T15:54:26.483Z,32.37
2017-11-29T15:56:54.353Z,40.70
2017-11-29T15:59:22.215Z,36.70
2017-11-29T16:01:50.088Z,37.77
2017-11-29T16:04:17.994Z,41.03
2017-11-29T16:06:45.865Z,40.20
2017-11-29T16:09:13.753Z,37.97
2017-11-29T16:11:41.630Z,36.77
2017-11-29T16:14:09.601Z,30.73
2017-11-29T16:16:37.571Z,34.80
2017-11-29T16:19:05.447Z,29.17
2017-11-29T16:21:33.350Z,30.70
2017-11-29T16:24:01.257Z,34.73
2017-11-29T16:26:29.130Z,33.90
2017-11-29T16:28:56.994Z,28.73
2017-11-29T16:31:24.913Z,31.70
2017-11-29T16:33:53.076Z,28.87
2017-11-29T16:36:20.970Z,28.37
2017-11-29T16:38:49.086Z,30.40
2017-11-29T16:41:16.945Z,29.50
2017-11-29T16:43:44.835Z,31.30
2017-11-29T16:46:12.869Z,32.70
2017-11-29T16:48:40.771Z,36.27
2017-11-29T16:51:08.623Z,40.10
2017-11-29T16:53:36.670Z,33.37
2017-11-29T16:56:04.582Z,33.77
2017-11-29T16:58:32.452Z,31.87
2017-11-29T17:01:00.361Z,27.40
2017-11-29T17:03:28.271Z,26.83
2017-11-29T17:06:11.195Z,30.90
2017-11-29T17:08:39.107Z,27.97
2017-11-29T17:11:06.985Z,34.03
2017-11-29T17:13:34.878Z,30.73
2017-11-29T17:16:02.778Z,43.03
2017-11-29T17:18:30.625Z,28.47
2017-11-29T17:20:58.507Z,24.73
2017-11-29T17:23:26.365Z,30.67
2017-11-29T17:25:54.345Z,34.03
2017-11-29T17:28:22.237Z,28.20
2017-11-29T17:30:50.165Z,28.50
2017-11-29T17:33:18.033Z,29.87
2017-11-29T17:35:46.162Z,25.10
2017-11-29T17:38:14.037Z,37.03
2017-11-29T17:40:41.905Z,25.67
2017-11-29T17:43:09.803Z,28.43
2017-11-29T17:45:37.679Z,33.17
2017-11-29T17:48:05.623Z,32.13
2017-11-29T17:50:33.505Z,33.63
2017-11-29T17:53:01.428Z,33.63
2017-11-29T17:55:29.293Z,30.47
2017-11-29T17:57:57.178Z,45.40
2017-11-29T18:00:25.033Z,34.63
2017-11-29T18:02:52.900Z,39.90
2017-11-29T18:05:20.804Z,33.80
2017-11-29T18:07:48.749Z,34.20
2017-11-29T18:10:16.613Z,32.80
2017-11-29T18:12:44.579Z,27.90
2017-11-29T18:15:12.444Z,28.13
2017-11-29T18:17:47.421Z,32.80
2017-11-29T18:20:15.285Z,29.10
2017-11-29T18:22:43.212Z,30.07
2017-11-29T18:25:11.158Z,33.10
2017-11-29T18:27:41.747Z,29.83
2017-11-29T18:30:11.105Z,38.10
2017-11-29T18:32:38.973Z,35.97
2017-11-29T18:35:06.824Z,31.27
2017-11-29T18:37:34.737Z,32.10
2017-11-29T18:40:02.590Z,29.77
2017-11-29T18:42:30.431Z,30.80
2017-11-29T18:44:58.317Z,34.73
2017-11-29T18:47:26.174Z,35.00
2017-11-29T18:49:54.030Z,37.90
2017-11-29T18:52:21.995Z,35.57
2017-11-29T18:54:49.857Z,36.07
2017-11-29T18:57:17.704Z,30.10
2017-11-29T18:59:45.582Z,32.70
2017-11-29T19:02:13.485Z,32.87
2017-11-29T19:04:41.340Z,36.20
2017-11-29T19:07:09.294Z,35.27
2017-11-29T19:09:37.220Z,39.47
2017-11-29T19:12:05.105Z,39.80
2017-11-29T19:14:33.012Z,40.10
2017-11-29T19:17:00.861Z,36.90
2017-11-29T19:19:28.730Z,39.43
2017-11-29T19:21:56.616Z,42.70
2017-11-29T19:24:24.471Z,41.40
2017-11-29T19:26:52.316Z,38.53
2017-11-29T19:29:20.222Z,38.57
2017-11-29T19:31:48.071Z,40.90
2017-11-29T19:34:15.961Z,45.57
2017-11-29T19:36:43.856Z,44.90
2017-11-29T19:39:11.715Z,45.87
2017-11-29T19:41:39.590Z,35.03
2017-11-29T19:44:07.477Z,38.00
2017-11-29T19:46:35.314Z,38.63
2017-11-29T19:49:03.199Z,36.93
2017-11-29T19:51:31.086Z,56.03
2017-11-29T19:53:58.947Z,42.43
2017-11-29T19:56:26.957Z,38.53
2017-11-29T19:58:55.577Z,35.63
2017-11-29T20:01:23.448Z,43.60
2017-11-29T20:03:51.374Z,37.50
2017-11-29T20:06:19.256Z,36.47
2017-11-29T20:08:47.111Z,37.37
2017-11-29T20:11:15.014Z,39.90
2017-11-29T20:13:42.902Z,37.70
2017-11-29T20:16:10.767Z,45.17
2017-11-29T20:18:38.638Z,43.13
2017-11-29T20:21:06.539Z,45.30
2017-11-29T20:23:34.390Z,37.53
2017-11-29T20:26:02.284Z,35.23
2017-11-29T20:28:30.173Z,40.80
2017-11-29T20:30:58.032Z,45.20
2017-11-29T20:33:25.941Z,35.30
2017-11-29T20:35:53.817Z,40.67
2017-11-29T20:38:21.737Z,35.90
2017-11-29T20:40:49.570Z,42.47
2017-11-29T20:43:17.435Z,34.97
2017-11-29T20:45:45.274Z,35.17
2017-11-29T20:48:13.118Z,35.47
2017-11-29T20:50:41.005Z,36.80
2017-11-29T20:53:08.862Z,32.70
2017-11-29T20:55:39.635Z,34.80
2017-11-29T20:58:07.558Z,37.93
2017-11-29T21:00:35.490Z,35.60
2017-11-29T21:03:03.460Z,35.50
2017-11-29T21:05:31.332Z,36.77
2017-11-29T21:07:59.193Z,33.33
2017-11-29T21:10:29.183Z,33.73
2017-11-29T21:12:57.106Z,37.40
2017-11-29T21:15:24.959Z,40.00
2017-11-29T21:17:52.798Z,38.60
2017-11-29T21:20:20.693Z,34.90
2017-11-29T21:22:48.544Z,37.27
2017-11-29T21:25:16.394Z,37.53
2017-11-29T21:27:44.269Z,38.30
2017-11-29T21:30:12.125Z,54.80
2017-11-29T21:32:39.986Z,38.63
2017-11-29T21:35:07.865Z,39.07
2017-11-29T21:37:35.848Z,39.57
2017-11-29T21:40:03.738Z,39.20
2017-11-29T21:42:31.611Z,42.93
2017-11-29T21:44:59.627Z,38.23
2017-11-29T21:47:27.474Z,41.23
2017-11-29T21:49:55.453Z,44.57
2017-11-29T21:52:23.365Z,42.27
2017-11-29T21:54:51.216Z,44.13
2017-11-29T21:57:19.075Z,38.97
2017-11-29T21:59:46.926Z,47.80
2017-11-29T22:02:14.821Z,51.80
2017-11-29T22:04:42.655Z,45.87
2017-11-29T22:07:10.494Z,48.10
2017-11-29T22:09:38.381Z,44.17
2017-11-29T22:12:06.349Z,41.57
2017-11-29T22:14:34.235Z,55.37
2017-11-29T22:17:02.109Z,37.97
2017-11-29T22:19:29.978Z,38.87
2017-11-29T22:21:57.858Z,40.33
2017-11-29T22:24:25.732Z,43.03
2017-11-29T22:26:53.583Z,38.90
2017-11-29T22:29:21.426Z,42.00
2017-11-29T22:31:49.338Z,41.63
2017-11-29T22:34:17.178Z,42.43
2017-11-29T22:36:45.049Z,40.27
2017-11-29T22:39:13.056Z,36.10
2017-11-29T22:41:40.894Z,43.00
2017-11-29T22:44:08.845Z,41.23
2017-11-29T22:46:36.770Z,42.73
2017-11-29T22:49:04.616Z,41.50
2017-11-29T22:51:32.516Z,38.17
2017-11-29T22:54:00.388Z,41.37
2017-11-29T22:56:28.252Z,34.83
2017-11-29T22:58:56.119Z,42.50
2017-11-29T23:01:23.998Z,33.10
2017-11-29T23:03:51.867Z,39.60
2017-11-29T23:06:26.646Z,36.20
2017-11-29T23:08:54.493Z,39.07
2017-11-29T23:11:22.374Z,38.17
2017-11-29T23:13:50.318Z,37.53
2017-11-29T23:16:18.276Z,39.50
2017-11-29T23:18:46.136Z,35.57
2017-11-29T23:21:14.017Z,43.93
2017-11-29T23:23:41.877Z,39.47
2017-11-29T23:26:09.737Z,41.30
2017-11-29T23:28:37.613Z,44.83
2017-11-29T23:31:05.445Z,43.60
2017-11-29T23:33:33.336Z,43.93
2017-11-29T23:36:01.223Z,40.00
2017-11-29T23:38:29.102Z,41.47
2017-11-29T23:40:56.942Z,39.90
2017-11-29T23:43:24.821Z,40.10
2017-11-29T23:45:52.794Z,42.37
2017-11-29T23:48:20.673Z,43.73
2017-11-29T23:50:48.529Z,40.30
2017-11-29T23:53:16.386Z,50.30
2017-11-29T23:55:44.237Z,41.37
2017-11-29T23:58:12.097Z,40.63
